sensor_id;sensor_type;location;lat;lon;timestamp;pressure;altitude;pressure_sealevel;temperature;humidity
40940;BME280;26666;50.156;7.700;2023-04-06T00:01:08;100782.19;;;3.58;74.52
40940;BME280;26666;50.156;7.700;2023-04-06T00:06:11;100786.66;;;3.20;74.24
40940;BME280;26666;50.156;7.700;2023-04-06T00:11:13;100772.31;;;3.28;75.19
40940;BME280;26666;50.156;7.700;2023-04-06T00:16:15;100770.16;;;3.36;74.93
40940;BME280;26666;50.156;7.700;2023-04-06T00:21:18;100772.56;;;3.05;75.20
40940;BME280;26666;50.156;7.700;2023-04-06T00:26:20;100756.41;;;3.15;76.17
40940;BME280;26666;50.156;7.700;2023-04-06T00:31:21;100756.78;;;2.89;76.24
40940;BME280;26666;50.156;7.700;2023-04-06T00:36:24;100755.63;;;3.13;75.61
40940;BME280;26666;50.156;7.700;2023-04-06T00:41:26;100744.25;;;3.14;74.70
40940;BME280;26666;50.156;7.700;2023-04-06T00:46:28;100746.53;;;3.03;75.19
40940;BME280;26666;50.156;7.700;2023-04-06T00:51:31;100746.69;;;3.00;76.14
40940;BME280;26666;50.156;7.700;2023-04-06T00:56:33;100732.66;;;3.20;75.91
40940;BME280;26666;50.156;7.700;2023-04-06T01:01:35;100729.69;;;2.91;75.76
40940;BME280;26666;50.156;7.700;2023-04-06T01:06:38;100734.56;;;2.80;77.58
40940;BME280;26666;50.156;7.700;2023-04-06T01:11:40;100726.06;;;2.58;77.47
40940;BME280;26666;50.156;7.700;2023-04-06T01:16:42;100725.81;;;3.00;76.34
40940;BME280;26666;50.156;7.700;2023-04-06T01:21:45;100715.13;;;2.49;76.93
40940;BME280;26666;50.156;7.700;2023-04-06T01:26:48;100713.06;;;2.56;76.36
40940;BME280;26666;50.156;7.700;2023-04-06T01:31:50;100701.44;;;2.44;77.85
40940;BME280;26666;50.156;7.700;2023-04-06T01:36:52;100697.91;;;2.64;77.99
40940;BME280;26666;50.156;7.700;2023-04-06T01:41:55;100692.97;;;2.58;77.19
40940;BME280;26666;50.156;7.700;2023-04-06T01:46:57;100684.34;;;2.94;76.24
40940;BME280;26666;50.156;7.700;2023-04-06T01:51:59;100684.81;;;2.47;77.40
40940;BME280;26666;50.156;7.700;2023-04-06T01:57:02;100687.47;;;2.64;77.28
40940;BME280;26666;50.156;7.700;2023-04-06T02:02:03;100683.69;;;2.52;77.19
40940;BME280;26666;50.156;7.700;2023-04-06T02:07:05;100680.00;;;2.56;76.07
40940;BME280;26666;50.156;7.700;2023-04-06T02:12:08;100681.63;;;2.21;78.80
40940;BME280;26666;50.156;7.700;2023-04-06T02:17:10;100676.94;;;2.10;78.33
40940;BME280;26666;50.156;7.700;2023-04-06T02:22:12;100674.66;;;2.22;78.65
40940;BME280;26666;50.156;7.700;2023-04-06T02:27:15;100681.63;;;2.02;80.49
40940;BME280;26666;50.156;7.700;2023-04-06T02:32:16;100677.41;;;2.00;79.40
40940;BME280;26666;50.156;7.700;2023-04-06T02:37:18;100679.53;;;2.10;80.27
40940;BME280;26666;50.156;7.700;2023-04-06T02:42:21;100675.63;;;2.00;79.45
40940;BME280;26666;50.156;7.700;2023-04-06T02:47:23;100663.88;;;2.29;78.78
40940;BME280;26666;50.156;7.700;2023-04-06T02:52:25;100663.97;;;2.09;77.93
40940;BME280;26666;50.156;7.700;2023-04-06T02:57:28;100662.25;;;2.27;78.21
40940;BME280;26666;50.156;7.700;2023-04-06T03:02:30;100666.91;;;2.01;78.24
40940;BME280;26666;50.156;7.700;2023-04-06T03:07:32;100662.25;;;2.08;78.79
40940;BME280;26666;50.156;7.700;2023-04-06T03:12:35;100665.47;;;1.94;78.46
40940;BME280;26666;50.156;7.700;2023-04-06T03:17:37;100668.88;;;2.15;79.71
40940;BME280;26666;50.156;7.700;2023-04-06T03:22:39;100674.91;;;1.96;79.83
40940;BME280;26666;50.156;7.700;2023-04-06T03:27:42;100673.69;;;2.05;79.12
40940;BME280;26666;50.156;7.700;2023-04-06T03:32:43;100667.94;;;1.78;78.18
40940;BME280;26666;50.156;7.700;2023-04-06T03:37:45;100678.81;;;1.67;80.19
40940;BME280;26666;50.156;7.700;2023-04-06T03:42:48;100677.63;;;1.95;78.57
40940;BME280;26666;50.156;7.700;2023-04-06T03:47:50;100674.31;;;1.71;78.77
40940;BME280;26666;50.156;7.700;2023-04-06T03:52:52;100673.03;;;2.19;77.77
40940;BME280;26666;50.156;7.700;2023-04-06T03:57:55;100672.97;;;2.21;77.20
40940;BME280;26666;50.156;7.700;2023-04-06T04:02:57;100680.91;;;1.59;78.84
40940;BME280;26666;50.156;7.700;2023-04-06T04:07:59;100683.38;;;1.62;79.97
40940;BME280;26666;50.156;7.700;2023-04-06T04:13:02;100687.47;;;1.27;80.38
40940;BME280;26666;50.156;7.700;2023-04-06T04:18:04;100690.56;;;1.36;80.03
40940;BME280;26666;50.156;7.700;2023-04-06T04:23:05;100699.78;;;1.64;79.22
40940;BME280;26666;50.156;7.700;2023-04-06T04:28:09;100702.38;;;1.23;80.31
40940;BME280;26666;50.156;7.700;2023-04-06T04:33:10;100701.00;;;1.55;79.49
40940;BME280;26666;50.156;7.700;2023-04-06T04:38:12;100699.47;;;1.31;81.08
40940;BME280;26666;50.156;7.700;2023-04-06T04:43:15;100698.69;;;1.29;80.28
40940;BME280;26666;50.156;7.700;2023-04-06T04:48:17;100699.06;;;1.40;79.62
40940;BME280;26666;50.156;7.700;2023-04-06T04:53:19;100701.22;;;1.71;79.72
40940;BME280;26666;50.156;7.700;2023-04-06T04:58:22;100699.41;;;1.53;79.44
40940;BME280;26666;50.156;7.700;2023-04-06T05:03:25;100703.94;;;1.27;80.02
40940;BME280;26666;50.156;7.700;2023-04-06T05:08:27;100702.78;;;1.55;78.36
40940;BME280;26666;50.156;7.700;2023-04-06T05:13:31;100697.44;;;1.17;80.99
40940;BME280;26666;50.156;7.700;2023-04-06T05:18:33;100700.25;;;1.33;80.11
40940;BME280;26666;50.156;7.700;2023-04-06T05:23:34;100699.38;;;1.12;81.05
40940;BME280;26666;50.156;7.700;2023-04-06T05:28:37;100704.72;;;1.29;80.28
40940;BME280;26666;50.156;7.700;2023-04-06T05:33:39;100710.59;;;1.55;79.31
40940;BME280;26666;50.156;7.700;2023-04-06T05:38:41;100705.63;;;1.90;77.58
40940;BME280;26666;50.156;7.700;2023-04-06T05:43:44;100706.22;;;2.15;75.78
40940;BME280;26666;50.156;7.700;2023-04-06T05:48:46;100705.66;;;2.47;74.70
40940;BME280;26666;50.156;7.700;2023-04-06T05:53:48;100694.88;;;2.73;73.29
40940;BME280;26666;50.156;7.700;2023-04-06T05:58:51;100699.09;;;3.12;73.02
40940;BME280;26666;50.156;7.700;2023-04-06T06:03:53;100703.88;;;3.57;71.42
40940;BME280;26666;50.156;7.700;2023-04-06T06:08:55;100704.78;;;3.73;70.19
40940;BME280;26666;50.156;7.700;2023-04-06T06:13:59;100702.38;;;3.86;70.66
40940;BME280;26666;50.156;7.700;2023-04-06T06:19:01;100702.53;;;4.16;69.00
40940;BME280;26666;50.156;7.700;2023-04-06T06:24:04;100684.16;;;4.49;68.43
40940;BME280;26666;50.156;7.700;2023-04-06T06:29:07;100694.81;;;5.24;65.98
40940;BME280;26666;50.156;7.700;2023-04-06T06:34:10;100695.25;;;5.61;64.57
40940;BME280;26666;50.156;7.700;2023-04-06T06:39:11;100693.22;;;6.53;62.61
40940;BME280;26666;50.156;7.700;2023-04-06T06:44:17;100692.38;;;9.21;56.48
40940;BME280;26666;50.156;7.700;2023-04-06T06:49:19;100699.63;;;9.31;56.21
40940;BME280;26666;50.156;7.700;2023-04-06T06:54:21;100696.44;;;10.85;52.39
40940;BME280;26666;50.156;7.700;2023-04-06T06:59:27;100676.91;;;13.03;48.43
40940;BME280;26666;50.156;7.700;2023-04-06T07:04:32;100676.09;;;14.82;44.80
40940;BME280;26666;50.156;7.700;2023-04-06T07:09:35;100676.75;;;15.64;42.71
40940;BME280;26666;50.156;7.700;2023-04-06T07:14:38;100676.13;;;16.22;41.38
40940;BME280;26666;50.156;7.700;2023-04-06T07:19:40;100664.72;;;16.46;39.89
40940;BME280;26666;50.156;7.700;2023-04-06T07:24:42;100668.00;;;17.65;38.93
40940;BME280;26666;50.156;7.700;2023-04-06T07:29:45;100666.22;;;16.49;40.26
40940;BME280;26666;50.156;7.700;2023-04-06T07:34:46;100658.88;;;16.51;40.34
40940;BME280;26666;50.156;7.700;2023-04-06T07:39:48;100658.91;;;16.67;39.40
40940;BME280;26666;50.156;7.700;2023-04-06T07:44:54;100660.38;;;15.06;42.29
40940;BME280;26666;50.156;7.700;2023-04-06T07:49:56;100661.03;;;12.33;46.44
40940;BME280;26666;50.156;7.700;2023-04-06T07:54:57;100647.53;;;11.54;47.96
40940;BME280;26666;50.156;7.700;2023-04-06T08:00:01;100646.25;;;11.06;49.06
40940;BME280;26666;50.156;7.700;2023-04-06T08:05:03;100644.81;;;10.70;49.22
40940;BME280;26666;50.156;7.700;2023-04-06T08:10:05;100645.19;;;10.76;51.28
40940;BME280;26666;50.156;7.700;2023-04-06T08:15:09;100640.28;;;10.93;50.50
40940;BME280;26666;50.156;7.700;2023-04-06T08:20:11;100641.31;;;10.80;49.55
40940;BME280;26666;50.156;7.700;2023-04-06T08:25:13;100633.97;;;11.05;49.38
40940;BME280;26666;50.156;7.700;2023-04-06T08:30:16;100631.28;;;11.58;49.73
40940;BME280;26666;50.156;7.700;2023-04-06T08:35:18;100632.44;;;11.66;50.03
40940;BME280;26666;50.156;7.700;2023-04-06T08:40:19;100630.41;;;11.27;49.42
40940;BME280;26666;50.156;7.700;2023-04-06T08:45:23;100624.66;;;11.22;51.84
40940;BME280;26666;50.156;7.700;2023-04-06T08:50:25;100623.28;;;11.70;55.87
40940;BME280;26666;50.156;7.700;2023-04-06T08:55:27;100617.16;;;11.79;55.53
40940;BME280;26666;50.156;7.700;2023-04-06T09:00:36;100609.91;;;11.81;50.32
40940;BME280;26666;50.156;7.700;2023-04-06T09:05:38;100610.63;;;12.14;50.96
40940;BME280;26666;50.156;7.700;2023-04-06T09:10:41;100604.84;;;12.39;50.45
40940;BME280;26666;50.156;7.700;2023-04-06T09:15:44;100619.13;;;12.08;51.21
40940;BME280;26666;50.156;7.700;2023-04-06T09:20:57;100605.84;;;12.48;47.77
40940;BME280;26666;50.156;7.700;2023-04-06T09:26:10;100602.31;;;12.28;50.59
40940;BME280;26666;50.156;7.700;2023-04-06T09:31:14;100604.69;;;12.41;50.08
40940;BME280;26666;50.156;7.700;2023-04-06T09:36:17;100606.50;;;12.31;49.29
40940;BME280;26666;50.156;7.700;2023-04-06T09:41:23;100595.50;;;12.65;47.84
40940;BME280;26666;50.156;7.700;2023-04-06T09:46:27;100590.50;;;12.71;48.75
40940;BME280;26666;50.156;7.700;2023-04-06T09:51:31;100593.69;;;12.26;52.44
40940;BME280;26666;50.156;7.700;2023-04-06T09:56:41;100592.44;;;12.50;49.07
40940;BME280;26666;50.156;7.700;2023-04-06T10:01:48;100579.31;;;12.38;49.91
40940;BME280;26666;50.156;7.700;2023-04-06T10:06:51;100579.06;;;12.51;47.83
40940;BME280;26666;50.156;7.700;2023-04-06T10:11:54;100577.69;;;12.76;45.68
40940;BME280;26666;50.156;7.700;2023-04-06T10:16:58;100588.13;;;12.58;48.01
40940;BME280;26666;50.156;7.700;2023-04-06T10:22:00;100583.38;;;12.62;49.33
40940;BME280;26666;50.156;7.700;2023-04-06T10:27:06;100574.72;;;12.89;45.05
40940;BME280;26666;50.156;7.700;2023-04-06T10:32:09;100568.59;;;12.89;45.27
40940;BME280;26666;50.156;7.700;2023-04-06T10:37:13;100581.28;;;13.05;46.15
40940;BME280;26666;50.156;7.700;2023-04-06T10:42:24;100567.47;;;12.52;49.16
40940;BME280;26666;50.156;7.700;2023-04-06T10:47:38;100550.44;;;12.45;50.60
40940;BME280;26666;50.156;7.700;2023-04-06T10:52:40;100548.34;;;12.68;46.55
40940;BME280;26666;50.156;7.700;2023-04-06T10:57:46;100559.97;;;12.67;48.55
40940;BME280;26666;50.156;7.700;2023-04-06T11:02:49;100562.88;;;12.74;48.61
40940;BME280;26666;50.156;7.700;2023-04-06T11:07:51;100551.00;;;12.78;48.06
40940;BME280;26666;50.156;7.700;2023-04-06T11:12:53;100547.38;;;12.79;48.87
40940;BME280;26666;50.156;7.700;2023-04-06T11:18:03;100540.41;;;12.49;50.02
40940;BME280;26666;50.156;7.700;2023-04-06T11:23:05;100543.50;;;12.63;49.42
40940;BME280;26666;50.156;7.700;2023-04-06T11:28:07;100537.63;;;12.70;46.29
40940;BME280;26666;50.156;7.700;2023-04-06T11:33:10;100531.06;;;12.35;51.23
40940;BME280;26666;50.156;7.700;2023-04-06T11:38:11;100520.75;;;12.22;51.59
40940;BME280;26666;50.156;7.700;2023-04-06T11:43:13;100522.00;;;12.86;46.97
40940;BME280;26666;50.156;7.700;2023-04-06T11:48:20;100519.19;;;12.68;47.38
40940;BME280;26666;50.156;7.700;2023-04-06T11:53:21;100511.41;;;12.76;48.55
40940;BME280;26666;50.156;7.700;2023-04-06T11:58:23;100510.44;;;12.48;49.14
40940;BME280;26666;50.156;7.700;2023-04-06T12:03:26;100506.94;;;12.57;50.03
40940;BME280;26666;50.156;7.700;2023-04-06T12:08:28;100503.94;;;12.99;44.06
40940;BME280;26666;50.156;7.700;2023-04-06T12:13:30;100515.44;;;12.71;47.22
40940;BME280;26666;50.156;7.700;2023-04-06T12:18:33;100513.03;;;12.87;44.87
40940;BME280;26666;50.156;7.700;2023-04-06T12:23:35;100499.94;;;12.76;44.01
40940;BME280;26666;50.156;7.700;2023-04-06T12:28:36;100512.59;;;12.92;44.49
40940;BME280;26666;50.156;7.700;2023-04-06T12:33:40;100504.56;;;12.64;44.80
40940;BME280;26666;50.156;7.700;2023-04-06T12:38:41;100501.47;;;12.88;44.52
40940;BME280;26666;50.156;7.700;2023-04-06T12:43:43;100504.06;;;13.17;44.83
40940;BME280;26666;50.156;7.700;2023-04-06T12:48:47;100492.28;;;12.73;45.18
40940;BME280;26666;50.156;7.700;2023-04-06T12:53:48;100493.34;;;12.90;45.34
40940;BME280;26666;50.156;7.700;2023-04-06T12:58:51;100490.19;;;12.67;46.98
40940;BME280;26666;50.156;7.700;2023-04-06T13:03:55;100492.69;;;12.78;45.31
40940;BME280;26666;50.156;7.700;2023-04-06T13:08:57;100488.75;;;12.82;45.51
40940;BME280;26666;50.156;7.700;2023-04-06T13:13:59;100485.88;;;12.66;45.95
40940;BME280;26666;50.156;7.700;2023-04-06T13:19:02;100485.22;;;13.01;44.99
40940;BME280;26666;50.156;7.700;2023-04-06T13:24:04;100488.78;;;12.62;45.13
40940;BME280;26666;50.156;7.700;2023-04-06T13:29:06;100485.41;;;12.80;45.07
40940;BME280;26666;50.156;7.700;2023-04-06T13:34:09;100482.19;;;12.96;45.17
40940;BME280;26666;50.156;7.700;2023-04-06T13:39:11;100481.81;;;12.71;45.01
40940;BME280;26666;50.156;7.700;2023-04-06T13:44:12;100483.38;;;13.11;45.55
40940;BME280;26666;50.156;7.700;2023-04-06T13:49:15;100477.06;;;13.32;45.02
40940;BME280;26666;50.156;7.700;2023-04-06T13:54:17;100472.38;;;13.06;46.65
40940;BME280;26666;50.156;7.700;2023-04-06T13:59:19;100482.53;;;13.11;45.41
40940;BME280;26666;50.156;7.700;2023-04-06T14:04:22;100476.44;;;13.00;46.95
40940;BME280;26666;50.156;7.700;2023-04-06T14:09:23;100471.53;;;13.15;46.46
40940;BME280;26666;50.156;7.700;2023-04-06T14:14:25;100471.72;;;12.94;47.42
40940;BME280;26666;50.156;7.700;2023-04-06T14:19:28;100481.22;;;12.87;47.55
40940;BME280;26666;50.156;7.700;2023-04-06T14:24:30;100480.38;;;12.87;46.87
40940;BME280;26666;50.156;7.700;2023-04-06T14:29:32;100487.81;;;12.63;47.55
40940;BME280;26666;50.156;7.700;2023-04-06T14:34:36;100490.91;;;12.39;51.04
40940;BME280;26666;50.156;7.700;2023-04-06T14:39:38;100488.66;;;12.54;49.25
40940;BME280;26666;50.156;7.700;2023-04-06T14:44:40;100494.94;;;12.63;50.33
40940;BME280;26666;50.156;7.700;2023-04-06T14:49:43;100500.94;;;12.46;49.83
40940;BME280;26666;50.156;7.700;2023-04-06T14:54:45;100504.44;;;12.27;50.92
40940;BME280;26666;50.156;7.700;2023-04-06T14:59:47;100502.22;;;12.32;49.52
40940;BME280;26666;50.156;7.700;2023-04-06T15:04:50;100493.56;;;12.30;49.99
40940;BME280;26666;50.156;7.700;2023-04-06T15:09:54;100488.66;;;12.25;50.99
40940;BME280;26666;50.156;7.700;2023-04-06T15:14:56;100487.84;;;12.34;50.94
40940;BME280;26666;50.156;7.700;2023-04-06T15:19:59;100492.16;;;12.35;51.56
40940;BME280;26666;50.156;7.700;2023-04-06T15:25:00;100486.00;;;12.25;50.86
40940;BME280;26666;50.156;7.700;2023-04-06T15:30:02;100490.19;;;12.37;51.58
40940;BME280;26666;50.156;7.700;2023-04-06T15:35:12;100496.06;;;12.31;52.34
40940;BME280;26666;50.156;7.700;2023-04-06T15:40:14;100498.00;;;12.10;51.81
40940;BME280;26666;50.156;7.700;2023-04-06T15:45:15;100503.88;;;12.23;52.30
40940;BME280;26666;50.156;7.700;2023-04-06T15:50:18;100502.19;;;12.22;52.50
40940;BME280;26666;50.156;7.700;2023-04-06T15:55:20;100504.28;;;12.09;52.97
40940;BME280;26666;50.156;7.700;2023-04-06T16:00:22;100501.31;;;12.02;55.82
40940;BME280;26666;50.156;7.700;2023-04-06T16:05:28;100502.72;;;12.06;53.35
40940;BME280;26666;50.156;7.700;2023-04-06T16:10:31;100512.47;;;11.96;54.56
40940;BME280;26666;50.156;7.700;2023-04-06T16:15:33;100501.88;;;11.96;55.28
40940;BME280;26666;50.156;7.700;2023-04-06T16:20:36;100509.28;;;11.71;56.08
40940;BME280;26666;50.156;7.700;2023-04-06T16:25:38;100521.53;;;11.62;57.75
40940;BME280;26666;50.156;7.700;2023-04-06T16:30:40;100519.47;;;11.35;59.63
40940;BME280;26666;50.156;7.700;2023-04-06T16:35:47;100530.22;;;11.43;61.61
40940;BME280;26666;50.156;7.700;2023-04-06T16:40:58;100536.94;;;11.48;62.18
40940;BME280;26666;50.156;7.700;2023-04-06T16:46:00;100543.03;;;11.38;63.65
40940;BME280;26666;50.156;7.700;2023-04-06T16:51:05;100541.38;;;11.16;65.86
40940;BME280;26666;50.156;7.700;2023-04-06T16:56:07;100537.66;;;11.19;68.09
40940;BME280;26666;50.156;7.700;2023-04-06T17:01:16;100544.00;;;11.16;74.19
40940;BME280;26666;50.156;7.700;2023-04-06T17:06:20;100544.59;;;10.99;77.73
40940;BME280;26666;50.156;7.700;2023-04-06T17:11:22;100544.59;;;10.99;82.14
40940;BME280;26666;50.156;7.700;2023-04-06T17:16:33;100540.47;;;11.06;85.31
40940;BME280;26666;50.156;7.700;2023-04-06T17:21:38;100541.38;;;10.74;84.90
40940;BME280;26666;50.156;7.700;2023-04-06T17:26:40;100545.88;;;10.62;92.00
40940;BME280;26666;50.156;7.700;2023-04-06T17:31:42;100550.28;;;10.73;95.96
40940;BME280;26666;50.156;7.700;2023-04-06T17:36:47;100553.75;;;10.53;100.00
40940;BME280;26666;50.156;7.700;2023-04-06T17:41:49;100541.91;;;10.24;100.00
40940;BME280;26666;50.156;7.700;2023-04-06T17:46:50;100554.97;;;10.26;100.00
40940;BME280;26666;50.156;7.700;2023-04-06T17:51:53;100545.25;;;10.38;100.00
40940;BME280;26666;50.156;7.700;2023-04-06T17:56:55;100545.97;;;10.40;100.00
40940;BME280;26666;50.156;7.700;2023-04-06T18:01:57;100556.94;;;10.01;100.00
40940;BME280;26666;50.156;7.700;2023-04-06T18:07:00;100561.19;;;9.93;100.00
40940;BME280;26666;50.156;7.700;2023-04-06T18:12:01;100557.94;;;10.00;100.00
40940;BME280;26666;50.156;7.700;2023-04-06T18:17:03;100567.00;;;10.07;100.00
40940;BME280;26666;50.156;7.700;2023-04-06T18:22:06;100551.31;;;10.06;100.00
40940;BME280;26666;50.156;7.700;2023-04-06T18:27:08;100557.31;;;10.08;100.00
40940;BME280;26666;50.156;7.700;2023-04-06T18:32:10;100560.91;;;9.96;100.00
40940;BME280;26666;50.156;7.700;2023-04-06T18:37:13;100559.13;;;9.96;100.00
40940;BME280;26666;50.156;7.700;2023-04-06T18:42:16;100571.72;;;9.93;100.00
40940;BME280;26666;50.156;7.700;2023-04-06T18:47:17;100567.66;;;9.77;100.00
40940;BME280;26666;50.156;7.700;2023-04-06T18:52:20;100563.22;;;9.66;100.00
40940;BME280;26666;50.156;7.700;2023-04-06T18:57:22;100566.19;;;9.84;100.00
40940;BME280;26666;50.156;7.700;2023-04-06T19:02:24;100563.59;;;9.62;100.00
40940;BME280;26666;50.156;7.700;2023-04-06T19:07:27;100570.66;;;9.84;100.00
40940;BME280;26666;50.156;7.700;2023-04-06T19:12:32;100569.81;;;9.72;100.00
40940;BME280;26666;50.156;7.700;2023-04-06T19:17:34;100571.38;;;9.75;100.00
40940;BME280;26666;50.156;7.700;2023-04-06T19:22:37;100570.41;;;9.76;100.00
40940;BME280;26666;50.156;7.700;2023-04-06T19:27:39;100564.31;;;9.64;100.00
40940;BME280;26666;50.156;7.700;2023-04-06T19:32:41;100566.09;;;9.75;100.00
40940;BME280;26666;50.156;7.700;2023-04-06T19:37:44;100562.03;;;9.48;100.00
40940;BME280;26666;50.156;7.700;2023-04-06T19:42:46;100559.25;;;9.61;100.00
40940;BME280;26666;50.156;7.700;2023-04-06T19:47:47;100557.44;;;9.27;100.00
40940;BME280;26666;50.156;7.700;2023-04-06T19:52:50;100565.25;;;9.40;100.00
40940;BME280;26666;50.156;7.700;2023-04-06T19:57:52;100556.97;;;9.45;100.00
40940;BME280;26666;50.156;7.700;2023-04-06T20:02:54;100553.13;;;9.49;100.00
40940;BME280;26666;50.156;7.700;2023-04-06T20:07:57;100546.72;;;9.06;100.00
40940;BME280;26666;50.156;7.700;2023-04-06T20:12:59;100548.81;;;9.25;100.00
40940;BME280;26666;50.156;7.700;2023-04-06T20:18:00;100541.72;;;9.26;100.00
40940;BME280;26666;50.156;7.700;2023-04-06T20:23:03;100539.81;;;9.39;100.00
40940;BME280;26666;50.156;7.700;2023-04-06T20:28:05;100538.88;;;9.40;100.00
40940;BME280;26666;50.156;7.700;2023-04-06T20:33:06;100538.38;;;9.35;100.00
40940;BME280;26666;50.156;7.700;2023-04-06T20:38:10;100534.69;;;9.49;100.00
40940;BME280;26666;50.156;7.700;2023-04-06T20:43:11;100539.97;;;9.26;100.00
40940;BME280;26666;50.156;7.700;2023-04-06T20:48:13;100550.25;;;9.41;100.00
40940;BME280;26666;50.156;7.700;2023-04-06T20:53:17;100538.13;;;9.16;100.00
40940;BME280;26666;50.156;7.700;2023-04-06T20:58:19;100533.47;;;9.31;100.00
40940;BME280;26666;50.156;7.700;2023-04-06T21:03:20;100535.41;;;9.28;100.00
40940;BME280;26666;50.156;7.700;2023-04-06T21:08:24;100527.72;;;9.37;100.00
40940;BME280;26666;50.156;7.700;2023-04-06T21:13:25;100522.34;;;9.27;100.00
40940;BME280;26666;50.156;7.700;2023-04-06T21:18:28;100526.78;;;9.26;100.00
40940;BME280;26666;50.156;7.700;2023-04-06T21:23:31;100511.41;;;9.32;100.00
40940;BME280;26666;50.156;7.700;2023-04-06T21:28:33;100509.97;;;9.05;100.00
40940;BME280;26666;50.156;7.700;2023-04-06T21:33:35;100501.34;;;9.03;100.00
40940;BME280;26666;50.156;7.700;2023-04-06T21:38:38;100496.78;;;9.05;100.00
40940;BME280;26666;50.156;7.700;2023-04-06T21:43:40;100493.88;;;8.97;100.00
40940;BME280;26666;50.156;7.700;2023-04-06T21:48:41;100492.00;;;9.10;100.00
40940;BME280;26666;50.156;7.700;2023-04-06T21:53:45;100498.72;;;9.03;100.00
40940;BME280;26666;50.156;7.700;2023-04-06T21:58:47;100494.53;;;9.23;100.00
40940;BME280;26666;50.156;7.700;2023-04-06T22:03:49;100495.34;;;9.01;100.00
40940;BME280;26666;50.156;7.700;2023-04-06T22:08:53;100478.56;;;9.02;100.00
40940;BME280;26666;50.156;7.700;2023-04-06T22:13:54;100471.00;;;9.08;100.00
40940;BME280;26666;50.156;7.700;2023-04-06T22:18:56;100470.56;;;9.15;100.00
40940;BME280;26666;50.156;7.700;2023-04-06T22:23:59;100464.78;;;8.98;100.00
40940;BME280;26666;50.156;7.700;2023-04-06T22:29:04;100463.09;;;9.08;100.00
40940;BME280;26666;50.156;7.700;2023-04-06T22:34:06;100457.25;;;9.05;100.00
40940;BME280;26666;50.156;7.700;2023-04-06T22:39:09;100468.88;;;9.25;100.00
40940;BME280;26666;50.156;7.700;2023-04-06T22:44:12;100442.28;;;9.17;100.00
40940;BME280;26666;50.156;7.700;2023-04-06T22:49:14;100442.28;;;9.17;100.00
40940;BME280;26666;50.156;7.700;2023-04-06T22:54:17;100448.28;;;9.19;100.00
40940;BME280;26666;50.156;7.700;2023-04-06T22:59:19;100437.34;;;9.12;100.00
40940;BME280;26666;50.156;7.700;2023-04-06T23:04:21;100425.25;;;9.10;100.00
40940;BME280;26666;50.156;7.700;2023-04-06T23:09:24;100428.63;;;9.12;100.00
40940;BME280;26666;50.156;7.700;2023-04-06T23:14:26;100431.59;;;9.18;100.00
40940;BME280;26666;50.156;7.700;2023-04-06T23:19:27;100425.16;;;9.11;100.00
40940;BME280;26666;50.156;7.700;2023-04-06T23:24:31;100412.69;;;9.24;100.00
40940;BME280;26666;50.156;7.700;2023-04-06T23:29:32;100413.13;;;9.30;100.00
40940;BME280;26666;50.156;7.700;2023-04-06T23:34:34;100408.50;;;8.99;100.00
40940;BME280;26666;50.156;7.700;2023-04-06T23:39:37;100408.63;;;9.09;100.00
40940;BME280;26666;50.156;7.700;2023-04-06T23:44:39;100397.44;;;9.28;100.00
40940;BME280;26666;50.156;7.700;2023-04-06T23:49:41;100395.78;;;9.16;100.00
40940;BME280;26666;50.156;7.700;2023-04-06T23:54:44;100396.75;;;9.15;100.00
40940;BME280;26666;50.156;7.700;2023-04-06T23:59:46;100384.41;;;9.04;100.00
